createdAt,value
2023-05-11T00:02:50.111Z,960.55
2023-05-11T00:07:51.474Z,960.55
2023-05-11T00:12:52.932Z,960.49
2023-05-11T00:17:55.032Z,960.47
2023-05-11T00:22:56.351Z,960.54
2023-05-11T00:27:57.654Z,960.49
2023-05-11T00:32:59.230Z,960.47
2023-05-11T00:38:00.647Z,960.37
2023-05-11T00:43:02.028Z,960.33
2023-05-11T00:48:03.579Z,960.32
2023-05-11T00:53:04.996Z,960.29
2023-05-11T00:58:06.278Z,960.29
2023-05-11T01:03:07.603Z,960.3
2023-05-11T01:08:09.649Z,960.3
2023-05-11T01:13:10.919Z,960.38
2023-05-11T01:18:12.425Z,960.33
2023-05-11T01:23:14.120Z,960.32
2023-05-11T01:28:15.895Z,960.24
2023-05-11T01:33:17.675Z,960.19
2023-05-11T01:38:19.024Z,960.16
2023-05-11T01:53:23.602Z,960.18
2023-05-11T01:58:25.224Z,960.14
2023-05-11T03:18:51.694Z,959.91
2023-05-11T03:59:11.812Z,959.73
2023-05-11T04:14:16.361Z,959.64
2023-05-11T04:24:19.838Z,959.66
2023-05-11T04:29:21.015Z,959.7
2023-05-11T04:34:23.125Z,959.73
2023-05-11T04:39:25.049Z,959.69
2023-05-11T04:44:27.120Z,959.66
2023-05-11T04:49:29.042Z,959.74
2023-05-11T04:54:30.479Z,959.73
2023-05-11T04:59:32.120Z,959.72
2023-05-11T05:04:36.198Z,959.72
2023-05-11T05:09:35.478Z,959.73
2023-05-11T05:14:36.959Z,959.76
2023-05-11T05:19:38.801Z,959.77
2023-05-11T05:24:40.048Z,959.79
2023-05-11T05:29:42.318Z,959.79
2023-05-11T05:34:43.663Z,959.83
2023-05-11T05:39:47.080Z,959.81
2023-05-11T05:44:47.113Z,959.89
2023-05-11T05:49:49.083Z,959.87
2023-05-11T05:54:50.410Z,959.85
2023-05-11T05:59:51.910Z,959.9
2023-05-11T06:04:53.802Z,959.87
2023-05-11T06:09:55.339Z,959.92
2023-05-11T06:14:57.205Z,959.93
2023-05-11T06:19:59.150Z,959.98
2023-05-11T06:25:01.164Z,959.96
2023-05-11T06:30:02.816Z,959.98
2023-05-11T06:35:04.657Z,960
2023-05-11T06:40:05.974Z,960.07
2023-05-11T06:45:07.844Z,960.09
2023-05-11T06:50:09.121Z,960.07
2023-05-11T06:55:10.681Z,960.07
2023-05-11T07:00:12.497Z,960.1
2023-05-11T07:05:14.206Z,960.07
2023-05-11T07:10:15.767Z,960.03
2023-05-11T07:15:17.212Z,960.04
2023-05-11T07:20:18.706Z,960.06
2023-05-11T07:25:19.817Z,960.02
2023-05-11T07:30:21.700Z,960.06
2023-05-11T07:35:24.101Z,960.01
2023-05-11T07:40:25.304Z,960
2023-05-11T07:45:26.927Z,960.07
2023-05-11T07:50:28.939Z,960.07
2023-05-11T07:55:30.416Z,960.04
2023-05-11T08:00:31.732Z,960
2023-05-11T08:05:33.070Z,960.03
2023-05-11T08:10:34.765Z,960.04
2023-05-11T08:15:36.135Z,960.08
2023-05-11T08:20:37.744Z,960.08
2023-05-11T08:25:39.305Z,960.04
2023-05-11T08:30:41.341Z,960.03
2023-05-11T08:35:43.484Z,960.03
2023-05-11T08:40:44.929Z,960.01
2023-05-11T08:45:46.332Z,960.01
2023-05-11T08:50:48.220Z,960
2023-05-11T08:55:49.661Z,959.97
2023-05-11T09:00:51.507Z,959.95
2023-05-11T09:05:53.222Z,959.99
2023-05-11T09:10:55.015Z,959.99
2023-05-11T09:15:57.038Z,959.99
2023-05-11T09:20:59.005Z,959.99
2023-05-11T09:26:00.349Z,960.04
2023-05-11T09:31:02.265Z,960.01
2023-05-11T09:36:03.810Z,959.96
2023-05-11T09:41:05.017Z,959.95
2023-05-11T09:46:06.155Z,959.88
2023-05-11T09:51:08.045Z,959.84
2023-05-11T09:56:09.482Z,959.87
2023-05-11T10:01:11.378Z,959.82
2023-05-11T10:06:12.896Z,959.81
2023-05-11T10:11:14.870Z,959.82
2023-05-11T10:16:21.523Z,959.89
2023-05-11T10:21:17.560Z,959.87
2023-05-11T10:26:19.374Z,959.88
2023-05-11T10:31:20.992Z,959.94
2023-05-11T10:36:23.023Z,959.88
2023-05-11T10:41:24.873Z,959.94
2023-05-11T10:46:28.906Z,959.88
2023-05-11T10:51:28.173Z,959.87
2023-05-11T10:56:30.245Z,959.84
2023-05-11T11:01:31.727Z,959.81
2023-05-11T11:06:33.275Z,959.83
2023-05-11T11:11:34.563Z,959.82
2023-05-11T11:16:36.003Z,959.82
2023-05-11T11:21:37.115Z,959.72
2023-05-11T11:26:38.315Z,959.77
2023-05-11T11:31:39.650Z,959.75
2023-05-11T11:36:41.810Z,959.69
2023-05-11T11:41:43.372Z,959.76
2023-05-11T11:46:44.674Z,959.8
2023-05-11T11:51:46.494Z,959.74
2023-05-11T11:56:48.557Z,959.76
2023-05-11T12:01:50.505Z,959.73
2023-05-11T12:06:52.588Z,959.69
2023-05-11T12:11:54.092Z,959.78
2023-05-11T12:16:55.539Z,959.75
2023-05-11T12:21:57.591Z,959.73
2023-05-11T12:26:58.799Z,959.72
2023-05-11T12:32:00.241Z,959.64
2023-05-11T12:37:01.584Z,959.67
2023-05-11T12:42:02.928Z,959.62
2023-05-11T12:47:04.574Z,959.61
2023-05-11T12:52:06.689Z,959.56
2023-05-11T12:57:08.654Z,959.59
2023-05-11T13:02:10.668Z,959.58
2023-05-11T13:07:12.114Z,959.52
2023-05-11T13:12:13.824Z,959.47
2023-05-11T13:17:15.870Z,959.42
2023-05-11T13:22:17.844Z,959.42
2023-05-11T13:27:19.652Z,959.4
2023-05-11T13:32:21.375Z,959.37
2023-05-11T13:37:23.493Z,959.29
2023-05-11T13:42:25.344Z,959.32
2023-05-11T13:47:26.533Z,959.3
2023-05-11T13:52:27.920Z,959.31
2023-05-11T13:57:29.588Z,959.25
2023-05-11T14:02:31.566Z,959.23
2023-05-11T14:07:43.175Z,959.22
2023-05-11T14:12:34.618Z,959.22
2023-05-11T14:17:35.978Z,959.18
2023-05-11T14:22:37.290Z,959.18
2023-05-11T14:27:39.190Z,959.16
2023-05-11T14:32:40.798Z,959.14
2023-05-11T14:37:42.849Z,959.15
2023-05-11T14:42:44.321Z,959.18
2023-05-11T14:47:45.823Z,959.25
2023-05-11T14:52:47.514Z,959.29
2023-05-11T14:57:49.402Z,959.31
2023-05-11T15:02:51.046Z,959.26
2023-05-11T15:07:52.301Z,959.27
2023-05-11T15:12:53.688Z,959.26
2023-05-11T15:17:54.955Z,959.25
2023-05-11T15:22:56.946Z,959.28
2023-05-11T15:27:58.854Z,959.31
2023-05-11T15:33:00.160Z,959.36
2023-05-11T15:38:02.031Z,959.36
2023-05-11T15:43:03.381Z,959.36
2023-05-11T15:48:05.203Z,959.41
2023-05-11T15:53:06.883Z,959.45
2023-05-11T15:58:08.833Z,959.43
2023-05-11T16:03:10.699Z,959.43
2023-05-11T16:08:12.115Z,959.41
2023-05-11T16:13:13.575Z,959.39
2023-05-11T16:18:15.276Z,959.38
2023-05-11T16:23:17.418Z,959.4
2023-05-11T18:49:07.093Z,959.41
2023-05-11T19:24:19.791Z,959.55
2023-05-11T19:29:21.919Z,959.54
2023-05-11T19:34:23.320Z,959.56
2023-05-11T19:39:25.371Z,959.54
2023-05-11T19:44:27.458Z,959.54
2023-05-11T19:49:29.399Z,959.6
2023-05-11T19:54:30.792Z,959.58
2023-05-11T19:59:33.225Z,959.61
2023-05-11T20:04:34.247Z,959.59
2023-05-11T20:09:36.260Z,959.55
2023-05-11T20:14:38.012Z,959.55
2023-05-11T20:19:45.922Z,959.52
2023-05-11T20:24:47.737Z,959.57
2023-05-11T20:29:49.170Z,959.53
2023-05-11T20:34:51.112Z,959.51
2023-05-11T20:39:52.958Z,959.49
2023-05-11T20:44:55.080Z,959.5
2023-05-11T20:49:56.928Z,959.5
2023-05-11T20:54:58.794Z,959.44
2023-05-11T21:05:02.303Z,959.44
2023-05-11T21:10:04.003Z,959.39
2023-05-11T21:15:05.448Z,959.35
2023-05-11T21:20:07.363Z,959.3
2023-05-11T21:25:09.031Z,959.27
2023-05-11T21:30:10.432Z,959.26
2023-05-11T21:35:12.532Z,959.27
2023-05-11T21:40:13.896Z,959.3
2023-05-11T21:45:15.343Z,959.31
2023-05-11T21:50:17.641Z,959.38
2023-05-11T21:55:18.677Z,959.43
2023-05-11T22:00:20.403Z,959.39
2023-05-11T22:05:21.910Z,959.37
2023-05-11T22:10:23.849Z,959.36
2023-05-11T22:15:25.833Z,959.37
2023-05-11T22:20:27.884Z,959.4
2023-05-11T22:25:29.177Z,959.46
2023-05-11T22:30:31.264Z,959.45
2023-05-11T22:35:32.898Z,959.45
2023-05-11T22:40:34.828Z,959.44
2023-05-11T22:45:36.232Z,959.48
2023-05-11T22:50:37.813Z,959.47
2023-05-11T22:55:39.021Z,959.48
2023-05-11T23:00:40.467Z,959.5
2023-05-11T23:05:42.270Z,959.45
2023-05-11T23:10:44.132Z,959.47
2023-05-11T23:15:45.877Z,959.45
2023-05-11T23:20:47.499Z,959.44
2023-05-11T23:25:48.942Z,959.44
2023-05-11T23:30:50.269Z,959.46
2023-05-11T23:35:52.280Z,959.41
2023-05-11T23:40:53.839Z,959.38
2023-05-11T23:45:55.263Z,959.35
2023-05-11T23:50:57.381Z,959.3
2023-05-11T23:55:59.412Z,959.29
